createdAt,value
2023-07-24T00:00:41.608Z,93.90
2023-07-24T00:03:09.302Z,95.80
2023-07-24T00:05:37.028Z,97.50
2023-07-24T00:08:05.036Z,97.20
2023-07-24T00:10:32.653Z,97.50
2023-07-24T00:13:00.295Z,99.00
2023-07-24T00:15:27.873Z,99.90
2023-07-24T00:17:55.454Z,99.90
2023-07-24T00:20:25.402Z,99.90
2023-07-24T00:22:53.045Z,99.90
2023-07-24T00:25:20.652Z,99.90
2023-07-24T00:27:48.207Z,99.10
2023-07-24T00:30:15.776Z,99.90
2023-07-24T00:32:45.100Z,99.90
2023-07-24T00:35:12.674Z,99.90
2023-07-24T00:37:40.232Z,99.90
2023-07-24T00:40:09.324Z,99.60
2023-07-24T00:42:36.889Z,99.30
2023-07-24T00:45:05.635Z,99.90
2023-07-24T00:47:33.868Z,99.60
2023-07-24T00:50:01.618Z,99.90
2023-07-24T00:52:29.245Z,99.90
2023-07-24T00:54:56.895Z,99.90
2023-07-24T00:57:25.036Z,99.90
2023-07-24T00:59:53.222Z,99.90
2023-07-24T01:02:21.430Z,99.30
2023-07-24T01:04:49.882Z,99.40
2023-07-24T01:07:17.887Z,98.00
2023-07-24T01:09:45.501Z,98.10
2023-07-24T01:12:28.894Z,97.40
2023-07-24T01:15:04.661Z,98.90
2023-07-24T01:17:33.278Z,99.50
2023-07-24T01:20:05.033Z,99.00
2023-07-24T01:23:20.768Z,99.30
2023-07-24T01:26:00.507Z,99.70
2023-07-24T01:28:28.190Z,98.70
2023-07-24T01:30:57.218Z,97.10
2023-07-24T01:33:25.834Z,97.50
2023-07-24T01:36:01.700Z,97.10
2023-07-24T01:38:31.910Z,97.90
2023-07-24T01:41:01.386Z,96.20
2023-07-24T01:43:31.359Z,96.40
2023-07-24T01:45:59.732Z,95.50
2023-07-24T01:48:27.281Z,95.90
2023-07-24T01:50:55.801Z,95.70
2023-07-24T01:53:23.379Z,96.60
2023-07-24T01:55:50.946Z,97.50
2023-07-24T01:58:18.573Z,98.20
2023-07-24T02:00:46.231Z,97.60
2023-07-24T02:03:13.802Z,97.70
2023-07-24T02:05:41.405Z,98.10
2023-07-24T02:08:09.081Z,98.00
2023-07-24T02:10:39.151Z,97.60
2023-07-24T02:13:08.413Z,97.60
2023-07-24T02:15:37.120Z,97.60
2023-07-24T02:18:05.393Z,97.20
2023-07-24T02:20:34.078Z,96.80
2023-07-24T02:23:01.633Z,96.70
2023-07-24T02:25:29.231Z,96.60
2023-07-24T02:27:56.830Z,95.60
2023-07-24T02:30:25.111Z,95.60
2023-07-24T02:32:52.683Z,95.90
2023-07-24T02:35:20.284Z,96.30
2023-07-24T02:37:47.789Z,96.70
2023-07-24T02:40:15.457Z,97.00
2023-07-24T02:42:42.968Z,97.50
2023-07-24T02:45:12.144Z,98.40
2023-07-24T02:47:39.864Z,98.40
2023-07-24T02:50:08.036Z,97.80
2023-07-24T02:52:35.689Z,98.10
2023-07-24T02:55:03.449Z,97.20
2023-07-24T02:57:31.015Z,96.90
2023-07-24T02:59:58.685Z,96.10
2023-07-24T03:02:26.300Z,95.80
2023-07-24T03:04:53.889Z,95.20
2023-07-24T03:07:21.459Z,94.10
2023-07-24T03:09:49.097Z,94.40
2023-07-24T03:12:17.097Z,93.70
2023-07-24T03:14:44.991Z,92.90
2023-07-24T03:17:12.800Z,92.60
2023-07-24T03:19:41.810Z,92.30
2023-07-24T03:22:09.613Z,91.90
2023-07-24T03:24:37.169Z,91.10
2023-07-24T03:27:05.035Z,91.30
2023-07-24T03:29:32.777Z,91.20
2023-07-24T03:32:00.853Z,90.00
2023-07-24T03:34:28.619Z,90.40
2023-07-24T03:36:56.208Z,89.70
2023-07-24T03:39:23.780Z,88.30
2023-07-24T03:41:51.317Z,87.00
2023-07-24T03:44:18.864Z,86.60
2023-07-24T03:46:47.097Z,85.40
2023-07-24T03:49:14.758Z,84.20
2023-07-24T03:51:42.412Z,83.90
2023-07-24T03:54:10.022Z,83.80
2023-07-24T03:56:37.572Z,83.80
2023-07-24T03:59:06.657Z,83.10
2023-07-24T04:01:34.278Z,83.20
2023-07-24T04:04:02.461Z,82.50
2023-07-24T04:06:30.376Z,82.20
2023-07-24T04:08:59.047Z,82.50
2023-07-24T04:11:26.608Z,82.00
2023-07-24T04:13:54.161Z,81.70
2023-07-24T04:16:21.844Z,80.70
2023-07-24T04:18:49.470Z,80.20
2023-07-24T04:21:17.051Z,79.70
2023-07-24T04:23:44.641Z,79.60
2023-07-24T04:26:12.193Z,79.60
2023-07-24T04:28:39.748Z,79.40
2023-07-24T04:31:07.342Z,78.90
2023-07-24T04:33:34.904Z,77.90
2023-07-24T04:36:02.541Z,78.30
2023-07-24T04:38:30.112Z,77.80
2023-07-24T04:40:57.709Z,77.40
2023-07-24T04:43:25.325Z,76.80
2023-07-24T04:45:52.923Z,76.80
2023-07-24T04:48:20.877Z,75.90
2023-07-24T04:50:54.502Z,75.70
2023-07-24T04:53:22.346Z,75.00
2023-07-24T04:55:50.184Z,74.60
2023-07-24T04:58:17.868Z,73.60
2023-07-24T05:00:45.480Z,74.40
2023-07-24T05:03:13.290Z,73.10
2023-07-24T05:05:44.467Z,73.00
2023-07-24T05:08:13.339Z,74.30
2023-07-24T05:10:40.968Z,74.60
2023-07-24T05:13:09.054Z,75.00
2023-07-24T05:15:37.719Z,75.10
2023-07-24T05:18:05.289Z,75.20
2023-07-24T05:20:32.866Z,76.10
2023-07-24T05:23:00.465Z,76.50
2023-07-24T05:25:28.044Z,76.60
2023-07-24T05:27:55.626Z,74.90
2023-07-24T05:30:23.218Z,73.70
2023-07-24T05:32:50.980Z,73.00
2023-07-24T05:35:18.604Z,71.70
2023-07-24T05:37:46.165Z,69.90
2023-07-24T05:40:13.881Z,69.70
2023-07-24T05:42:44.354Z,69.40
2023-07-24T05:45:12.359Z,69.30
2023-07-24T05:47:39.970Z,69.10
2023-07-24T05:50:08.031Z,68.80
2023-07-24T05:52:35.577Z,68.00
2023-07-24T05:55:04.156Z,68.60
2023-07-24T05:57:31.752Z,69.20
2023-07-24T05:59:59.282Z,68.90
2023-07-24T06:02:26.832Z,68.20
2023-07-24T06:04:54.465Z,68.00
2023-07-24T06:07:22.087Z,67.70
2023-07-24T06:09:49.804Z,67.30
2023-07-24T06:12:17.538Z,67.10
2023-07-24T06:14:45.147Z,66.80
2023-07-24T06:17:12.713Z,66.50
2023-07-24T06:19:40.302Z,66.30
2023-07-24T06:22:08.467Z,66.50
2023-07-24T06:24:36.157Z,66.00
2023-07-24T06:27:04.071Z,65.80
2023-07-24T06:29:31.806Z,66.00
2023-07-24T06:31:59.470Z,65.70
2023-07-24T06:34:27.048Z,65.80
2023-07-24T06:36:55.246Z,66.00
2023-07-24T06:39:24.776Z,65.90
2023-07-24T06:41:56.217Z,65.80
2023-07-24T06:44:23.847Z,64.90
2023-07-24T06:46:51.429Z,64.90
2023-07-24T06:49:18.991Z,64.50
2023-07-24T06:51:46.582Z,64.20
2023-07-24T06:54:14.134Z,63.90
2023-07-24T06:56:41.676Z,63.70
2023-07-24T06:59:09.221Z,63.80
2023-07-24T07:01:36.892Z,64.00
2023-07-24T07:04:04.668Z,64.00
2023-07-24T07:06:32.264Z,64.20
2023-07-24T07:08:59.838Z,64.00
2023-07-24T07:11:27.384Z,63.80
2023-07-24T07:13:54.953Z,63.30
2023-07-24T07:16:22.588Z,62.30
2023-07-24T07:18:50.323Z,62.60
2023-07-24T07:21:17.966Z,62.90
2023-07-24T07:23:47.414Z,63.60
2023-07-24T07:26:15.190Z,63.90
2023-07-24T07:28:42.835Z,63.90
2023-07-24T07:31:10.448Z,64.10
2023-07-24T07:33:38.113Z,63.10
2023-07-24T07:36:06.984Z,63.00
2023-07-24T07:38:34.560Z,63.00
2023-07-24T07:41:06.671Z,63.10
2023-07-24T07:43:34.322Z,63.40
2023-07-24T07:46:01.946Z,63.70
2023-07-24T07:48:29.584Z,63.60
2023-07-24T07:50:57.158Z,64.10
2023-07-24T07:53:24.726Z,64.20
2023-07-24T07:56:01.013Z,66.40
2023-07-24T07:58:28.866Z,68.10
2023-07-24T08:00:56.662Z,67.60
2023-07-24T08:03:24.383Z,68.70
2023-07-24T08:05:52.048Z,69.40
2023-07-24T08:08:19.590Z,69.60
2023-07-24T08:10:47.182Z,70.10
2023-07-24T08:13:14.718Z,69.60
2023-07-24T08:15:42.253Z,70.30
2023-07-24T08:18:09.910Z,70.80
2023-07-24T08:20:38.527Z,71.10
2023-07-24T08:23:06.074Z,71.70
2023-07-24T08:25:33.645Z,73.60
2023-07-24T08:28:05.864Z,74.40
2023-07-24T08:30:35.650Z,76.00
2023-07-24T08:33:04.209Z,77.90
2023-07-24T08:35:31.899Z,79.30
2023-07-24T08:37:59.489Z,80.40
2023-07-24T08:40:27.096Z,81.30
2023-07-24T08:42:55.777Z,82.10
2023-07-24T08:45:25.602Z,82.70
2023-07-24T08:47:53.579Z,82.40
2023-07-24T08:50:22.761Z,80.20
2023-07-24T08:52:50.373Z,81.40
2023-07-24T08:55:18.022Z,82.60
2023-07-24T08:57:45.610Z,83.40
2023-07-24T09:00:13.842Z,83.20
2023-07-24T09:02:41.521Z,82.30
2023-07-24T09:05:09.965Z,81.30
2023-07-24T09:07:38.709Z,81.20
2023-07-24T09:10:08.342Z,82.00
2023-07-24T09:12:39.906Z,81.60
2023-07-24T09:15:08.803Z,81.40
2023-07-24T09:17:36.490Z,80.80
2023-07-24T09:20:05.005Z,80.30
2023-07-24T09:22:34.425Z,80.10
2023-07-24T09:25:04.463Z,79.60
2023-07-24T09:27:33.145Z,78.60
2023-07-24T09:30:02.079Z,77.50
2023-07-24T09:32:30.202Z,77.60
2023-07-24T09:34:57.804Z,77.60
2023-07-24T09:37:36.448Z,78.10
2023-07-24T09:40:07.555Z,78.50
2023-07-24T09:42:48.546Z,78.70
2023-07-24T09:45:23.413Z,77.50
2023-07-24T09:47:56.712Z,77.30
2023-07-24T09:50:26.859Z,78.00
2023-07-24T09:52:55.893Z,78.20
2023-07-24T09:55:31.248Z,78.50
2023-07-24T09:58:01.488Z,78.20
2023-07-24T10:00:29.934Z,77.40
2023-07-24T10:02:57.731Z,77.40
2023-07-24T10:05:25.734Z,77.50
2023-07-24T10:07:53.917Z,77.80
2023-07-24T10:10:22.518Z,78.60
2023-07-24T10:12:50.528Z,78.80
2023-07-24T10:15:19.137Z,80.30
2023-07-24T10:17:48.382Z,81.30
2023-07-24T10:20:18.922Z,81.70
2023-07-24T10:22:46.792Z,82.80
2023-07-24T10:25:14.439Z,83.10
2023-07-24T10:27:47.892Z,84.00
2023-07-24T10:30:32.606Z,85.50
2023-07-24T10:33:20.026Z,86.80
2023-07-24T10:36:10.775Z,88.70
2023-07-24T10:38:41.698Z,91.80
2023-07-24T10:41:11.493Z,93.00
2023-07-24T10:43:48.686Z,94.80
2023-07-24T10:46:20.302Z,97.50
2023-07-24T10:48:53.214Z,98.90
2023-07-24T10:51:22.578Z,99.90
2023-07-24T10:53:50.919Z,99.90
2023-07-24T10:56:18.605Z,99.90
2023-07-24T10:58:46.201Z,99.90
2023-07-24T11:01:15.240Z,99.90
2023-07-24T11:03:43.885Z,99.90
2023-07-24T11:06:20.900Z,99.90
2023-07-24T11:09:00.363Z,99.90
2023-07-24T11:11:37.133Z,99.90
2023-07-24T11:14:05.638Z,99.90
2023-07-24T11:16:34.438Z,99.90
2023-07-24T11:19:02.518Z,99.90
2023-07-24T11:21:30.670Z,99.90
2023-07-24T11:23:58.918Z,99.90
2023-07-24T11:26:28.146Z,99.90
2023-07-24T11:28:56.442Z,99.90
2023-07-24T11:31:24.127Z,99.90
2023-07-24T11:33:53.953Z,99.90
2023-07-24T11:36:22.772Z,99.90
2023-07-24T11:38:50.418Z,99.90
2023-07-24T11:41:18.983Z,99.90
2023-07-24T11:43:51.625Z,99.90
2023-07-24T11:46:32.855Z,99.90
2023-07-24T11:49:00.699Z,99.90
2023-07-24T11:51:30.101Z,99.90
2023-07-24T11:54:09.042Z,99.90
2023-07-24T11:56:36.938Z,99.90
2023-07-24T11:59:23.073Z,99.80
2023-07-24T12:01:50.625Z,97.30
2023-07-24T12:04:18.583Z,97.80
2023-07-24T12:06:46.279Z,96.40
2023-07-24T12:09:14.251Z,96.20
2023-07-24T12:11:46.674Z,95.20
2023-07-24T12:14:15.925Z,95.90
2023-07-24T12:16:43.885Z,96.90
2023-07-24T12:19:11.525Z,97.10
2023-07-24T12:21:39.368Z,97.90
2023-07-24T12:24:06.967Z,98.50
2023-07-24T12:26:34.731Z,99.10
2023-07-24T12:29:02.325Z,99.70
2023-07-24T12:31:30.653Z,99.90
2023-07-24T12:33:58.479Z,99.90
2023-07-24T12:36:26.065Z,99.90
2023-07-24T12:38:53.658Z,99.90
2023-07-24T12:41:21.190Z,99.90
2023-07-24T12:43:48.823Z,99.90
2023-07-24T12:46:16.487Z,99.90
2023-07-24T12:48:44.088Z,99.90
2023-07-24T12:51:11.658Z,99.90
2023-07-24T12:53:47.525Z,99.90
2023-07-24T12:56:21.130Z,99.90
2023-07-24T12:58:48.692Z,99.90
2023-07-24T13:01:16.342Z,99.90
2023-07-24T13:03:44.007Z,99.90
2023-07-24T13:06:11.620Z,99.90
2023-07-24T13:08:39.173Z,99.90
2023-07-24T13:11:06.827Z,99.90
2023-07-24T13:13:34.866Z,99.90
2023-07-24T13:16:02.825Z,99.90
2023-07-24T13:18:30.928Z,99.90
2023-07-24T13:20:58.598Z,99.90
2023-07-24T13:23:26.173Z,99.90
2023-07-24T13:25:54.461Z,99.90
2023-07-24T13:28:22.096Z,99.90
2023-07-24T13:30:49.758Z,99.90
2023-07-24T13:33:17.387Z,99.90
2023-07-24T13:35:45.410Z,99.90
2023-07-24T13:38:13.220Z,99.90
2023-07-24T13:40:41.076Z,99.90
2023-07-24T13:43:08.662Z,99.90
2023-07-24T13:45:36.318Z,99.90
2023-07-24T13:48:04.210Z,99.90
2023-07-24T13:50:31.821Z,99.90
2023-07-24T13:52:59.378Z,99.90
2023-07-24T13:55:27.013Z,99.90
2023-07-24T13:57:54.612Z,99.90
2023-07-24T14:00:22.320Z,99.90
2023-07-24T14:02:50.044Z,97.00
2023-07-24T14:05:17.883Z,93.00
2023-07-24T14:07:45.543Z,91.30
2023-07-24T14:10:13.205Z,87.90
2023-07-24T14:12:40.818Z,83.10
2023-07-24T14:15:09.111Z,84.10
2023-07-24T14:17:36.770Z,82.10
2023-07-24T14:20:06.287Z,77.50
2023-07-24T14:22:33.913Z,77.20
2023-07-24T14:25:01.553Z,77.50
2023-07-24T14:27:29.198Z,76.20
2023-07-24T14:29:56.850Z,75.70
2023-07-24T14:32:24.526Z,75.40
2023-07-24T14:34:53.730Z,74.00
2023-07-24T14:37:22.028Z,73.10
2023-07-24T14:39:51.138Z,71.70
2023-07-24T14:42:19.192Z,68.80
2023-07-24T14:44:46.839Z,68.80
2023-07-24T14:47:14.717Z,67.10
2023-07-24T14:49:42.325Z,67.10
2023-07-24T14:52:10.182Z,65.00
2023-07-24T14:54:39.732Z,62.10
2023-07-24T14:57:19.123Z,63.40
2023-07-24T14:59:52.250Z,65.80
2023-07-24T15:02:20.025Z,65.80
2023-07-24T15:04:47.956Z,64.00
2023-07-24T15:07:15.754Z,64.40
2023-07-24T15:09:44.409Z,63.40
2023-07-24T15:12:12.128Z,63.30
2023-07-24T15:14:39.803Z,64.40
2023-07-24T15:17:08.121Z,64.70
2023-07-24T15:19:35.760Z,64.10
2023-07-24T15:22:03.468Z,62.30
2023-07-24T15:24:31.080Z,62.10
2023-07-24T15:26:58.723Z,62.90
2023-07-24T15:29:26.376Z,62.70
2023-07-24T15:31:53.999Z,63.20
2023-07-24T15:34:21.590Z,63.30
2023-07-24T15:36:49.180Z,63.40
2023-07-24T15:39:16.741Z,63.70
2023-07-24T15:41:44.304Z,63.60
2023-07-24T15:44:11.982Z,63.80
2023-07-24T15:46:39.698Z,63.70
2023-07-24T15:49:07.364Z,64.20
2023-07-24T15:51:35.237Z,64.20
2023-07-24T15:54:05.753Z,63.90
2023-07-24T15:56:33.429Z,64.40
2023-07-24T15:59:01.144Z,64.00
2023-07-24T16:01:29.545Z,64.10
2023-07-24T16:03:57.547Z,67.30
2023-07-24T16:06:25.233Z,69.80
2023-07-24T16:08:52.867Z,71.00
2023-07-24T16:11:20.675Z,70.20
2023-07-24T16:13:48.292Z,77.10
2023-07-24T16:16:16.063Z,80.50
2023-07-24T16:18:44.172Z,85.40
2023-07-24T16:21:11.789Z,91.00
2023-07-24T16:23:39.520Z,99.90
2023-07-24T16:26:07.156Z,99.90
2023-07-24T16:28:34.724Z,99.90
2023-07-24T16:31:02.385Z,99.90
2023-07-24T16:33:31.296Z,99.90
2023-07-24T16:35:59.178Z,99.90
2023-07-24T16:38:26.740Z,99.90
2023-07-24T16:40:55.772Z,99.90
2023-07-24T16:43:23.962Z,99.90
2023-07-24T16:48:22.963Z,99.90
2023-07-24T16:50:50.697Z,99.90
2023-07-24T16:53:18.292Z,99.90
2023-07-24T16:55:45.857Z,99.90
2023-07-24T16:58:13.431Z,99.90
2023-07-24T17:00:41.072Z,99.90
2023-07-24T17:03:08.758Z,99.90
2023-07-24T17:05:36.869Z,99.90
2023-07-24T17:08:04.905Z,99.90
2023-07-24T17:10:44.888Z,99.90
2023-07-24T17:13:14.418Z,99.90
2023-07-24T17:15:44.084Z,99.90
2023-07-24T17:18:11.699Z,99.90
2023-07-24T17:20:39.307Z,99.90
2023-07-24T17:23:07.392Z,99.90
2023-07-24T17:25:36.946Z,99.90
2023-07-24T17:28:04.936Z,99.90
2023-07-24T17:30:32.743Z,99.90
2023-07-24T17:33:00.598Z,99.90
2023-07-24T17:35:28.611Z,99.90
2023-07-24T17:37:56.179Z,99.90
2023-07-24T17:40:23.944Z,99.90
2023-07-24T17:42:52.520Z,99.90
2023-07-24T17:45:20.076Z,99.90
2023-07-24T17:47:47.662Z,99.90
2023-07-24T17:50:15.341Z,99.90
2023-07-24T17:52:42.915Z,99.90
2023-07-24T17:55:10.549Z,99.90
2023-07-24T17:57:38.186Z,99.90
2023-07-24T18:00:06.772Z,99.90
2023-07-24T18:03:11.533Z,99.90
2023-07-24T18:05:39.429Z,99.90
2023-07-24T18:08:07.076Z,99.90
2023-07-24T18:10:34.721Z,99.90
2023-07-24T18:13:03.102Z,99.90
2023-07-24T18:15:30.687Z,99.90
2023-07-24T18:17:58.338Z,99.90
2023-07-24T18:20:25.931Z,99.90
2023-07-24T18:22:53.947Z,99.90
2023-07-24T18:25:21.614Z,99.90
2023-07-24T18:27:49.166Z,99.90
2023-07-24T18:30:16.997Z,99.90
2023-07-24T18:32:44.556Z,99.90
2023-07-24T18:35:13.957Z,99.90
2023-07-24T18:37:41.516Z,99.90
2023-07-24T18:40:09.808Z,99.90
2023-07-24T18:42:37.357Z,99.90
2023-07-24T18:45:05.885Z,99.90
2023-07-24T18:47:35.161Z,99.90
2023-07-24T18:50:03.440Z,99.90
2023-07-24T18:52:30.980Z,99.90
2023-07-24T18:55:00.341Z,99.90
2023-07-24T18:57:27.987Z,99.90
2023-07-24T18:59:55.606Z,99.90
2023-07-24T19:02:23.319Z,99.90
2023-07-24T19:04:51.159Z,99.90
2023-07-24T19:07:18.831Z,99.90
2023-07-24T19:09:46.379Z,99.90
2023-07-24T19:12:14.072Z,99.90
2023-07-24T19:14:41.742Z,99.90
2023-07-24T19:17:09.576Z,99.90
2023-07-24T19:19:38.964Z,99.90
2023-07-24T19:22:06.934Z,99.90
2023-07-24T19:24:34.584Z,99.90
2023-07-24T19:27:02.401Z,99.90
2023-07-24T19:29:29.976Z,99.90
2023-07-24T19:31:57.621Z,99.90
2023-07-24T19:34:25.203Z,99.90
2023-07-24T19:36:52.938Z,99.90
2023-07-24T19:39:20.546Z,99.90
2023-07-24T19:41:48.105Z,99.90
2023-07-24T19:44:15.686Z,99.90
2023-07-24T19:46:43.287Z,99.90
2023-07-24T19:49:10.877Z,99.90
2023-07-24T19:51:38.444Z,99.90
2023-07-24T19:54:06.083Z,99.90
2023-07-24T19:56:33.735Z,99.90
2023-07-24T19:59:01.275Z,99.90
2023-07-24T20:01:29.156Z,99.90
2023-07-24T20:03:57.004Z,99.90
2023-07-24T20:06:26.277Z,99.90
2023-07-24T20:08:53.849Z,99.90
2023-07-24T20:11:21.824Z,99.90
2023-07-24T20:13:49.540Z,99.90
2023-07-24T20:16:20.146Z,99.90
2023-07-24T20:18:48.008Z,99.90
2023-07-24T20:21:16.414Z,99.90
2023-07-24T20:23:44.119Z,99.90
2023-07-24T20:26:11.768Z,99.90
2023-07-24T20:28:39.700Z,99.90
2023-07-24T20:31:07.359Z,99.90
2023-07-24T20:33:34.980Z,99.90
2023-07-24T20:36:07.898Z,99.90
2023-07-24T20:38:37.677Z,99.90
2023-07-24T20:41:05.605Z,99.90
2023-07-24T20:43:33.225Z,99.90
2023-07-24T20:46:12.861Z,99.90
2023-07-24T20:48:41.615Z,99.90
2023-07-24T20:51:20.016Z,99.90
2023-07-24T20:53:48.923Z,99.90
2023-07-24T20:56:16.580Z,99.90
2023-07-24T20:58:45.126Z,99.90
2023-07-24T21:01:12.714Z,99.90
2023-07-24T21:03:40.405Z,99.90
2023-07-24T21:06:07.970Z,99.90
2023-07-24T21:08:35.536Z,99.90
2023-07-24T21:11:03.185Z,99.90
2023-07-24T21:13:30.760Z,99.90
2023-07-24T21:15:59.136Z,99.90
2023-07-24T21:18:27.433Z,99.90
2023-07-24T21:20:55.084Z,99.90
2023-07-24T21:23:22.683Z,99.90
2023-07-24T21:25:55.364Z,99.90
2023-07-24T21:28:24.361Z,99.90
2023-07-24T21:30:52.447Z,99.90
2023-07-24T21:33:20.262Z,99.90
2023-07-24T21:36:00.525Z,99.90
2023-07-24T21:38:28.207Z,99.90
2023-07-24T21:40:55.871Z,99.90
2023-07-24T21:43:24.595Z,99.90
2023-07-24T21:45:54.825Z,99.90
2023-07-24T21:48:22.563Z,99.90
2023-07-24T21:50:54.152Z,99.90
2023-07-24T21:53:22.660Z,99.90
2023-07-24T21:55:50.458Z,99.90
2023-07-24T21:58:18.152Z,99.90
2023-07-24T22:00:45.925Z,99.90
2023-07-24T22:03:13.687Z,99.90
2023-07-24T22:05:41.407Z,99.90
2023-07-24T22:08:09.506Z,99.90
2023-07-24T22:10:37.096Z,99.90
2023-07-24T22:13:04.694Z,99.90
2023-07-24T22:15:32.472Z,99.90
2023-07-24T22:18:00.071Z,99.90
2023-07-24T22:20:39.131Z,99.90
2023-07-24T22:23:09.635Z,99.90
2023-07-24T22:25:37.249Z,99.90
2023-07-24T22:28:05.083Z,99.90
2023-07-24T22:30:32.651Z,99.90
2023-07-24T22:33:00.326Z,99.90
2023-07-24T22:35:28.144Z,99.90
2023-07-24T22:37:55.682Z,99.90
2023-07-24T22:40:23.229Z,99.90
2023-07-24T22:42:50.790Z,99.90
2023-07-24T22:45:18.431Z,99.90
2023-07-24T22:47:46.650Z,99.90
2023-07-24T22:50:15.327Z,99.90
2023-07-24T22:52:43.905Z,99.90
2023-07-24T22:55:11.653Z,99.90
2023-07-24T22:57:39.221Z,99.90
2023-07-24T23:00:07.527Z,99.90
2023-07-24T23:02:35.427Z,99.90
2023-07-24T23:05:03.030Z,99.90
2023-07-24T23:07:30.572Z,99.90
2023-07-24T23:09:58.189Z,99.90
2023-07-24T23:12:25.795Z,99.90
2023-07-24T23:14:53.465Z,99.90
2023-07-24T23:17:21.116Z,99.90
2023-07-24T23:19:48.749Z,99.90
2023-07-24T23:22:16.314Z,99.90
2023-07-24T23:24:43.881Z,99.90
2023-07-24T23:27:11.533Z,99.90
2023-07-24T23:29:39.131Z,99.90
2023-07-24T23:32:07.489Z,99.90
2023-07-24T23:34:35.512Z,99.90
2023-07-24T23:37:03.102Z,99.90
2023-07-24T23:39:30.708Z,99.90
2023-07-24T23:41:58.270Z,99.90
2023-07-24T23:44:25.846Z,99.90
2023-07-24T23:46:53.410Z,99.90
2023-07-24T23:49:21.004Z,99.90
2023-07-24T23:51:48.566Z,99.90
2023-07-24T23:54:16.312Z,99.90
2023-07-24T23:56:43.859Z,99.90
2023-07-24T23:59:11.430Z,99.90
